Terminal Aerodrome Forecast
Issued by NWS

Home | Current Version | Previous Version | Text Only | Print | Product List | Glossary On
Versions: 1 2 3 4 5 6 7 8 9 10 11 12 13 14 15 16 17 18 19 20 21 22 23 24 25 26 27 28 29 30 31 32 33 34 35 36 37 38
000
FTUS45 KPSR 301400 AAB
TAFSDL
TAF AMD
KSDL 301444Z 3015/3112 09005KT P6SM -SHRA BKN030 OVC060
      TEMPO 3015/3018 3SM -RA BR BKN025 OVC045
     FM310000 VRB03KT P6SM -RA BKN035 OVC050=

USA.gov is the U.S. government's official web portal to all federal, state and local government web resources and services.